Time;durP1;ratioP1;P1;durP2;ratioP2;P2;SDS_P1;SDS_P2;PMS_P1;PMS_P2;Temp;Humidity;BMP_temperature;BMP_pressure;BME280_temperature;BME280_humidity;BME280_pressure;Samples;Min_cycle;Max_cycle;Signal;HPM_P1;HPM_P2
2022/11/11 00:01:10;;;;;;;6.67;5.23;;;5.40;99.90;;;;;;5040513;28;20187;-86
2022/11/11 00:03:36;;;;;;;5.87;5.27;;;5.30;99.90;;;;;;5047411;28;20187;-85
2022/11/11 00:06:07;;;;;;;6.80;6.07;;;5.30;99.90;;;;;;5065384;28;20208;-84
2022/11/11 00:08:33;;;;;;;7.37;5.93;;;5.30;99.90;;;;;;5041327;28;20672;-86
2022/11/11 00:11:04;;;;;;;6.67;5.97;;;5.30;99.90;;;;;;5039096;28;20194;-86
2022/11/11 00:13:31;;;;;;;8.30;6.67;;;5.40;99.90;;;;;;5040376;28;20185;-86
2022/11/11 00:16:14;;;;;;;8.87;7.50;;;5.40;99.90;;;;;;5060067;28;20225;-84
2022/11/11 00:27:16;;;;;;;10.17;9.10;;;5.20;99.90;;;;;;5056552;28;20178;-83
2022/11/11 00:29:47;;;;;;;11.33;9.77;;;5.10;99.90;;;;;;5037997;28;20195;-80
2022/11/11 00:32:22;;;;;;;11.03;9.80;;;5.10;99.90;;;;;;5055687;28;20641;-84
2022/11/11 00:37:39;;;;;;;12.13;10.30;;;5.00;99.90;;;;;;5055855;28;20225;-78
2022/11/11 00:40:06;;;;;;;13.13;10.40;;;5.00;99.90;;;;;;5055419;28;20176;-79
2022/11/11 00:42:33;;;;;;;13.33;10.87;;;5.00;99.90;;;;;;5055528;28;20212;-79
2022/11/11 00:44:59;;;;;;;13.90;11.23;;;4.90;99.90;;;;;;5055504;28;20181;-85
2022/11/11 00:52:58;;;;;;;12.37;11.07;;;5.00;99.90;;;;;;5056925;28;20199;-80
2022/11/11 00:55:24;;;;;;;15.57;10.97;;;4.90;99.90;;;;;;5056390;28;20196;-83
2022/11/11 00:57:50;;;;;;;14.17;11.00;;;4.90;99.90;;;;;;5055861;28;20299;-83
2022/11/11 01:00:16;;;;;;;13.63;11.53;;;4.90;99.90;;;;;;5055458;28;20207;-84
2022/11/11 01:02:41;;;;;;;13.73;10.83;;;4.80;99.90;;;;;;5055148;28;20208;-81
2022/11/11 01:05:07;;;;;;;13.93;11.27;;;4.80;99.90;;;;;;5037564;28;20187;-81
2022/11/11 01:07:33;;;;;;;11.93;9.90;;;4.80;99.90;;;;;;5055256;28;20195;-85
2022/11/11 01:09:59;;;;;;;12.73;11.43;;;4.80;99.90;;;;;;5037398;28;20190;-82
2022/11/11 01:12:25;;;;;;;12.37;10.30;;;4.80;99.90;;;;;;5055918;28;20188;-83
2022/11/11 01:14:52;;;;;;;12.47;10.93;;;4.80;99.90;;;;;;5033907;28;20305;-85
2022/11/11 01:17:18;;;;;;;12.37;10.93;;;4.80;99.90;;;;;;5033965;28;20247;-83
2022/11/11 01:19:44;;;;;;;15.10;11.37;;;4.80;99.90;;;;;;5036059;28;20237;-83
2022/11/11 01:22:10;;;;;;;13.13;10.57;;;4.80;99.90;;;;;;5034358;28;20598;-84
2022/11/11 01:24:37;;;;;;;11.90;10.67;;;4.70;99.90;;;;;;5033893;28;20556;-85
2022/11/11 01:27:03;;;;;;;12.03;10.37;;;4.70;99.90;;;;;;5038532;28;20185;-86
2022/11/11 01:29:29;;;;;;;13.53;10.73;;;4.70;99.90;;;;;;5035004;28;20634;-85
2022/11/11 01:31:55;;;;;;;13.57;10.77;;;4.60;99.90;;;;;;5044552;28;20212;-85
2022/11/11 01:34:21;;;;;;;13.10;11.27;;;4.50;99.90;;;;;;5038305;28;20603;-87
2022/11/11 01:36:47;;;;;;;12.53;10.60;;;4.60;99.90;;;;;;5035826;28;20265;-86
2022/11/11 01:39:12;;;;;;;11.70;10.47;;;4.60;99.90;;;;;;5036223;28;20243;-85
2022/11/11 01:41:38;;;;;;;12.43;11.13;;;4.60;99.90;;;;;;5047552;28;20568;-83
2022/11/11 01:44:10;;;;;;;11.83;10.63;;;4.50;99.90;;;;;;5035971;28;20184;-85
2022/11/11 01:46:45;;;;;;;11.07;9.97;;;4.50;99.90;;;;;;5035942;28;20185;-84
2022/11/11 01:49:28;;;;;;;12.60;10.80;;;4.50;99.90;;;;;;5034637;28;20641;-86
2022/11/11 01:52:34;;;;;;;13.37;10.53;;;4.60;99.90;;;;;;5035140;28;20164;-85
2022/11/11 01:55:18;;;;;;;11.07;9.43;;;4.60;99.90;;;;;;5034829;28;20176;-85
2022/11/11 01:57:50;;;;;;;11.50;9.73;;;4.50;99.90;;;;;;5034889;28;20266;-85
2022/11/11 02:00:18;;;;;;;10.73;9.53;;;4.50;99.90;;;;;;5033803;28;20170;-84
2022/11/11 02:02:54;;;;;;;11.13;9.70;;;4.60;99.90;;;;;;5036977;28;20196;-82
2022/11/11 02:08:32;;;;;;;14.03;10.47;;;4.50;99.90;;;;;;5035231;28;20192;-83
2022/11/11 02:11:12;;;;;;;12.80;10.63;;;4.50;99.90;;;;;;5034465;28;20770;-83
2022/11/11 02:16:26;;;;;;;11.73;9.67;;;4.50;99.90;;;;;;5050830;28;20323;-80
2022/11/11 02:18:53;;;;;;;10.60;9.33;;;4.40;99.90;;;;;;5054319;28;20187;-84
2022/11/11 02:21:44;;;;;;;11.43;8.93;;;4.40;99.90;;;;;;5054275;28;20204;-83
2022/11/11 02:24:15;;;;;;;10.23;9.13;;;4.40;99.90;;;;;;5055562;28;20233;-79
2022/11/11 02:26:42;;;;;;;11.33;9.20;;;4.40;99.90;;;;;;5058898;28;20165;-81
2022/11/11 02:29:12;;;;;;;10.07;9.07;;;4.30;99.90;;;;;;5054238;28;20188;-80
2022/11/11 02:31:38;;;;;;;10.23;9.20;;;4.30;99.90;;;;;;5055531;28;20275;-85
2022/11/11 02:34:04;;;;;;;11.20;9.43;;;4.40;99.90;;;;;;5053714;28;20179;-82
2022/11/11 02:36:30;;;;;;;11.97;10.67;;;4.30;99.90;;;;;;5035985;28;20278;-82
2022/11/11 02:38:56;;;;;;;10.90;9.20;;;4.30;99.90;;;;;;5054908;28;20213;-86
2022/11/11 02:44:06;;;;;;;10.80;9.63;;;4.30;99.90;;;;;;5053885;28;20183;-83
2022/11/11 02:46:32;;;;;;;11.27;9.53;;;4.20;99.90;;;;;;5035988;28;20180;-81
2022/11/11 02:48:58;;;;;;;11.03;9.50;;;4.20;99.90;;;;;;5053711;28;20670;-81
2022/11/11 02:51:23;;;;;;;10.93;9.70;;;4.20;99.90;;;;;;5053547;28;20175;-83
2022/11/11 02:53:49;;;;;;;12.73;10.60;;;4.20;99.90;;;;;;5053220;28;20178;-84
2022/11/11 02:57:05;;;;;;;13.43;10.40;;;4.20;99.90;;;;;;5053536;28;20222;-86
2022/11/11 02:59:03;;;;;;;13.47;10.00;;;4.20;99.90;;;;;;5066079;28;20210;-82
2022/11/11 03:01:29;;;;;;;10.50;9.37;;;4.10;99.90;;;;;;5053966;28;20176;-85
2022/11/11 03:03:55;;;;;;;10.67;9.67;;;4.10;99.90;;;;;;5055396;28;20622;-84
2022/11/11 03:06:21;;;;;;;10.33;9.30;;;4.00;99.90;;;;;;5053925;28;20687;-86
2022/11/11 03:08:47;;;;;;;11.03;9.93;;;4.10;99.90;;;;;;5057750;28;20218;-84
2022/11/11 03:11:12;;;;;;;9.83;8.83;;;4.00;99.90;;;;;;5058506;28;20646;-86
2022/11/11 03:13:38;;;;;;;10.43;9.33;;;4.00;99.90;;;;;;5057853;28;20260;-85
2022/11/11 03:16:04;;;;;;;11.07;8.87;;;4.00;99.90;;;;;;5035624;28;20282;-84
2022/11/11 03:18:30;;;;;;;11.03;9.77;;;4.10;99.90;;;;;;5037311;28;20185;-83
2022/11/11 03:21:05;;;;;;;9.90;8.90;;;4.00;99.90;;;;;;5037556;28;20181;-84
2022/11/11 03:23:31;;;;;;;10.13;8.67;;;4.00;99.90;;;;;;5037684;28;20213;-83
2022/11/11 03:25:57;;;;;;;9.83;8.77;;;4.00;99.90;;;;;;5036992;28;20239;-85
2022/11/11 03:28:24;;;;;;;9.70;8.70;;;3.90;99.90;;;;;;5036931;28;20186;-83
2022/11/11 03:30:50;;;;;;;9.33;7.97;;;4.00;99.90;;;;;;5037306;28;20556;-83
2022/11/11 03:33:17;;;;;;;9.63;8.63;;;3.90;99.90;;;;;;5037320;28;20224;-84
2022/11/11 03:35:45;;;;;;;9.67;8.50;;;3.90;99.90;;;;;;5037084;28;20690;-81
2022/11/11 03:38:15;;;;;;;9.40;8.27;;;3.90;99.90;;;;;;5037075;28;20212;-82
2022/11/11 03:40:42;;;;;;;9.83;8.83;;;3.90;99.90;;;;;;5036897;28;20271;-82
2022/11/11 03:43:08;;;;;;;9.30;8.37;;;3.80;99.90;;;;;;5036762;28;20206;-82
2022/11/11 03:45:34;;;;;;;11.03;8.10;;;3.70;99.90;;;;;;5037145;28;20674;-84
2022/11/11 03:48:00;;;;;;;8.87;8.07;;;3.80;99.90;;;;;;5037383;28;20267;-85
2022/11/11 03:50:26;;;;;;;8.97;8.13;;;3.80;99.90;;;;;;5037701;28;20267;-84
2022/11/11 03:52:52;;;;;;;9.07;8.17;;;3.80;99.90;;;;;;5049940;28;20203;-86
2022/11/11 03:55:18;;;;;;;9.70;8.40;;;3.80;99.90;;;;;;5037532;28;20269;-86
2022/11/11 03:57:45;;;;;;;10.20;8.47;;;3.90;99.90;;;;;;5036861;28;20226;-83
2022/11/11 04:00:14;;;;;;;9.53;8.53;;;3.90;99.90;;;;;;5036871;28;20192;-85
2022/11/11 04:11:02;;;;;;;8.23;7.43;;;4.00;99.90;;;;;;5036190;28;20175;-79
2022/11/11 04:16:14;;;;;;;7.90;7.10;;;3.80;99.90;;;;;;5050885;28;20236;-78
2022/11/11 04:21:42;;;;;;;6.93;6.23;;;3.80;99.90;;;;;;5056684;28;20529;-80
2022/11/11 04:27:00;;;;;;;8.20;7.40;;;3.90;99.90;;;;;;5070441;28;20214;-85
2022/11/11 04:29:29;;;;;;;7.00;6.40;;;3.90;99.90;;;;;;5039213;28;20278;-85
2022/11/11 04:34:58;;;;;;;5.93;5.33;;;4.00;99.90;;;;;;5059955;28;20185;-83
2022/11/11 04:37:26;;;;;;;6.40;5.80;;;3.90;99.90;;;;;;5070296;28;20221;-86
2022/11/11 04:42:38;;;;;;;7.90;5.00;;;4.10;99.90;;;;;;5056400;28;20173;-83
2022/11/11 04:47:56;;;;;;;8.17;5.27;;;4.00;99.90;;;;;;5056540;28;20175;-86
2022/11/11 04:50:27;;;;;;;6.10;5.40;;;4.10;99.90;;;;;;5056051;28;20241;-83
2022/11/11 04:52:53;;;;;;;6.80;5.17;;;4.10;99.90;;;;;;5056242;28;20538;-83
2022/11/11 04:58:03;;;;;;;4.43;3.97;;;4.10;99.90;;;;;;5056502;28;20222;-83
2022/11/11 05:00:29;;;;;;;4.90;4.40;;;4.10;99.90;;;;;;5055484;28;20174;-82
2022/11/11 05:03:15;;;;;;;7.53;4.63;;;4.20;99.90;;;;;;5040303;28;20191;-86
2022/11/11 05:09:00;;;;;;;5.47;4.90;;;4.30;99.90;;;;;;5061762;28;20195;-82
2022/11/11 05:11:34;;;;;;;6.83;4.90;;;4.30;99.90;;;;;;5037701;28;20219;-84
2022/11/11 05:22:31;;;;;;;5.90;5.17;;;4.20;99.90;;;;;;5055503;28;20198;-80
2022/11/11 05:28:01;;;;;;;6.83;6.07;;;4.20;99.90;;;;;;5014137;28;20769;-86
2022/11/11 05:30:27;;;;;;;6.60;6.00;;;4.30;99.90;;;;;;5013453;28;20276;-82
2022/11/11 05:32:55;;;;;;;6.23;5.73;;;4.20;99.90;;;;;;5013425;28;20185;-85
2022/11/11 05:35:22;;;;;;;6.87;6.20;;;4.30;99.90;;;;;;4996595;28;20722;-83
2022/11/11 05:38:19;;;;;;;7.57;6.47;;;4.30;99.90;;;;;;5013941;28;20250;-83
2022/11/11 05:40:33;;;;;;;7.43;6.73;;;4.30;99.90;;;;;;5016347;28;20192;-85
2022/11/11 05:42:59;;;;;;;9.27;7.10;;;4.30;99.90;;;;;;5010518;28;20261;-84
2022/11/11 05:45:25;;;;;;;9.27;8.27;;;4.30;99.90;;;;;;5020932;28;20192;-84
2022/11/11 05:47:51;;;;;;;9.40;8.00;;;4.30;99.90;;;;;;5014470;28;20200;-86
2022/11/11 05:50:16;;;;;;;11.67;8.70;;;4.30;99.90;;;;;;5013579;28;20581;-84
2022/11/11 05:52:49;;;;;;;10.83;8.03;;;4.20;99.90;;;;;;5019739;28;20200;-82
2022/11/11 05:55:15;;;;;;;10.00;7.77;;;4.30;99.90;;;;;;5018991;28;20185;-83
2022/11/11 05:57:41;;;;;;;11.13;7.40;;;4.30;99.90;;;;;;5017522;28;20220;-83
2022/11/11 06:00:07;;;;;;;8.30;7.40;;;4.30;99.90;;;;;;5058803;28;20659;-84
2022/11/11 06:02:33;;;;;;;8.67;7.87;;;4.20;99.90;;;;;;5059010;28;20188;-79
2022/11/11 06:04:59;;;;;;;8.63;7.73;;;4.30;99.90;;;;;;5060690;28;20187;-79
2022/11/11 06:07:25;;;;;;;8.80;7.97;;;4.30;99.90;;;;;;5053942;28;20575;-79
2022/11/11 06:09:50;;;;;;;9.20;8.27;;;4.30;99.90;;;;;;5054392;28;20260;-80
2022/11/11 06:12:16;;;;;;;11.90;8.07;;;4.30;99.90;;;;;;5054045;28;20270;-82
2022/11/11 06:14:42;;;;;;;8.43;7.63;;;4.40;99.90;;;;;;5055092;28;20190;-83
2022/11/11 06:17:09;;;;;;;8.53;7.63;;;4.40;99.90;;;;;;5057020;28;20228;-83
2022/11/11 06:19:35;;;;;;;9.10;7.33;;;4.30;99.90;;;;;;5059679;28;20190;-82
2022/11/11 06:22:03;;;;;;;8.17;7.37;;;4.30;99.90;;;;;;5039423;28;20278;-83
2022/11/11 06:24:28;;;;;;;8.60;7.77;;;4.30;99.90;;;;;;5053912;28;20173;-82
2022/11/11 06:26:55;;;;;;;9.60;8.60;;;4.50;99.90;;;;;;5054212;28;20547;-86
2022/11/11 06:29:21;;;;;;;9.13;8.23;;;4.50;99.90;;;;;;5054149;28;20207;-84
2022/11/11 06:31:46;;;;;;;10.17;8.60;;;4.50;99.90;;;;;;5054527;28;20180;-79
2022/11/11 06:34:12;;;;;;;11.87;8.73;;;4.50;99.90;;;;;;5053555;28;20171;-83
2022/11/11 06:36:38;;;;;;;9.50;8.20;;;4.50;99.90;;;;;;5053816;28;20215;-84
2022/11/11 06:39:04;;;;;;;9.23;8.33;;;4.50;99.90;;;;;;5054314;28;20185;-82
2022/11/11 06:41:30;;;;;;;9.27;7.50;;;4.50;99.90;;;;;;5053786;28;20192;-80
2022/11/11 06:43:56;;;;;;;10.87;8.40;;;4.60;99.90;;;;;;5035826;28;20187;-85
2022/11/11 06:46:24;;;;;;;11.03;8.80;;;4.60;99.90;;;;;;5053376;28;20484;-83
2022/11/11 06:48:50;;;;;;;9.57;8.10;;;4.70;99.90;;;;;;5053737;28;20171;-82
2022/11/11 06:51:16;;;;;;;9.80;8.27;;;4.70;99.90;;;;;;5053667;28;20188;-84
2022/11/11 06:53:43;;;;;;;9.90;8.17;;;4.80;99.90;;;;;;5053834;28;20171;-84
2022/11/11 06:56:11;;;;;;;9.57;8.37;;;4.70;99.90;;;;;;5035734;28;20184;-83
2022/11/11 06:58:37;;;;;;;11.27;8.67;;;4.80;99.90;;;;;;5053584;28;20184;-83
2022/11/11 07:01:05;;;;;;;10.53;8.87;;;4.90;99.90;;;;;;5053666;28;20232;-83
2022/11/11 07:03:32;;;;;;;13.40;9.23;;;4.80;99.90;;;;;;5053976;28;20175;-86
2022/11/11 07:06:00;;;;;;;10.10;8.37;;;4.90;99.90;;;;;;5036330;28;20188;-82
2022/11/11 07:08:27;;;;;;;10.87;8.40;;;4.80;99.90;;;;;;5058459;28;20249;-85
2022/11/11 07:10:53;;;;;;;13.10;8.60;;;4.90;99.90;;;;;;5059594;28;20187;-85
2022/11/11 07:13:18;;;;;;;14.47;9.40;;;4.90;99.90;;;;;;5057393;28;20584;-84
2022/11/11 07:15:44;;;;;;;14.40;9.27;;;4.90;99.90;;;;;;5053457;28;20682;-84
2022/11/11 07:18:10;;;;;;;12.90;9.40;;;4.90;99.90;;;;;;5053917;28;20218;-86
2022/11/11 07:20:37;;;;;;;12.50;9.97;;;4.80;99.90;;;;;;5056796;28;20218;-84
2022/11/11 07:23:04;;;;;;;15.50;9.53;;;4.90;99.90;;;;;;5059536;28;20189;-85
2022/11/11 07:25:30;;;;;;;11.70;9.47;;;4.90;99.90;;;;;;5037051;28;20546;-84
2022/11/11 07:27:56;;;;;;;10.90;9.37;;;4.90;99.90;;;;;;5054803;28;20188;-83
2022/11/11 07:30:22;;;;;;;11.27;9.80;;;4.90;99.90;;;;;;5059855;28;20242;-80
2022/11/11 07:32:50;;;;;;;14.23;9.70;;;4.90;99.90;;;;;;5065871;28;20192;-82
2022/11/11 07:35:18;;;;;;;13.00;9.67;;;4.80;99.90;;;;;;5058377;28;20191;-85
2022/11/11 07:37:44;;;;;;;14.93;9.90;;;4.90;99.90;;;;;;5053720;28;20240;-84
2022/11/11 07:40:12;;;;;;;12.30;9.40;;;4.80;99.90;;;;;;5053499;28;20177;-83
2022/11/11 07:42:40;;;;;;;11.97;9.13;;;4.90;99.90;;;;;;5053339;28;20184;-85
2022/11/11 07:45:08;;;;;;;11.10;9.33;;;4.90;99.90;;;;;;5053595;28;20259;-86
2022/11/11 07:47:34;;;;;;;19.17;9.47;;;4.90;99.90;;;;;;5053285;28;20238;-85
2022/11/11 07:50:01;;;;;;;12.37;9.20;;;5.00;99.90;;;;;;5053168;28;20593;-82
2022/11/11 07:52:27;;;;;;;9.63;8.73;;;5.20;99.90;;;;;;5053050;28;20211;-83
2022/11/11 07:54:53;;;;;;;13.13;9.40;;;5.20;99.90;;;;;;5053032;28;20181;-81
2022/11/11 07:57:19;;;;;;;11.20;9.33;;;5.20;99.90;;;;;;5054033;28;20213;-79
2022/11/11 07:59:46;;;;;;;11.90;9.40;;;5.30;99.90;;;;;;5056530;28;20770;-79
2022/11/11 08:02:13;;;;;;;13.03;9.77;;;5.20;99.90;;;;;;5056681;28;20176;-82
2022/11/11 08:04:39;;;;;;;10.40;9.30;;;5.30;99.90;;;;;;5058546;28;20546;-84
2022/11/11 08:07:05;;;;;;;13.07;9.60;;;5.30;99.90;;;;;;5057684;28;20183;-86
2022/11/11 08:09:30;;;;;;;11.43;9.97;;;5.30;99.90;;;;;;5057730;28;20523;-85
2022/11/11 08:14:40;;;;;;;12.70;9.33;;;5.40;99.90;;;;;;5057346;28;20176;-80
2022/11/11 08:17:06;;;;;;;11.00;9.07;;;5.40;99.90;;;;;;5056674;28;20558;-81
2022/11/11 08:19:32;;;;;;;10.93;9.30;;;5.50;99.90;;;;;;5056562;28;20170;-81
2022/11/11 08:21:58;;;;;;;12.73;10.03;;;5.60;99.90;;;;;;5038096;28;20235;-80
2022/11/11 08:24:24;;;;;;;11.67;9.57;;;5.70;99.90;;;;;;5056055;28;20588;-80
2022/11/11 08:26:52;;;;;;;9.73;8.67;;;5.80;99.90;;;;;;5038826;28;20223;-85
2022/11/11 08:29:18;;;;;;;11.13;9.10;;;5.90;99.90;;;;;;5038214;28;20275;-82
2022/11/11 08:31:44;;;;;;;14.33;9.73;;;6.00;99.90;;;;;;5038243;28;20186;-80
2022/11/11 08:34:11;;;;;;;12.50;9.53;;;6.20;99.90;;;;;;5055936;28;20681;-82
2022/11/11 08:36:37;;;;;;;9.73;8.73;;;6.40;99.90;;;;;;5055835;28;20220;-83
2022/11/11 08:39:03;;;;;;;12.70;9.87;;;6.50;99.90;;;;;;5055823;28;20260;-81
2022/11/11 08:41:29;;;;;;;12.03;9.80;;;6.60;99.90;;;;;;5055848;28;20215;-82
2022/11/11 08:43:55;;;;;;;13.23;9.83;;;6.70;99.90;;;;;;5056444;28;20556;-81
2022/11/11 08:46:22;;;;;;;13.00;9.27;;;6.80;99.90;;;;;;5057215;28;20181;-83
2022/11/11 08:48:48;;;;;;;11.37;9.63;;;6.90;99.90;;;;;;5041267;28;20661;-79
2022/11/11 08:51:14;;;;;;;14.37;9.80;;;6.90;99.90;;;;;;5058287;28;20210;-83
2022/11/11 08:53:40;;;;;;;17.27;10.13;;;7.00;99.90;;;;;;5039310;28;20213;-82
2022/11/11 08:56:07;;;;;;;14.23;10.43;;;7.10;99.90;;;;;;5056251;28;20214;-83
2022/11/11 08:58:33;;;;;;;12.27;10.07;;;7.20;99.90;;;;;;5060735;28;20168;-81
2022/11/11 09:01:00;;;;;;;11.43;9.43;;;7.30;99.90;;;;;;5040027;28;20225;-84
2022/11/11 09:03:26;;;;;;;11.83;9.87;;;7.40;99.90;;;;;;5038104;28;20199;-84
2022/11/11 09:05:52;;;;;;;11.70;9.60;;;7.50;99.90;;;;;;5056289;28;20186;-82
2022/11/11 09:08:18;;;;;;;11.13;9.73;;;7.60;99.90;;;;;;5037715;28;20203;-86
2022/11/11 09:10:44;;;;;;;13.17;9.63;;;7.70;99.90;;;;;;5056158;28;20214;-85
2022/11/11 09:13:10;;;;;;;10.90;9.80;;;7.70;99.90;;;;;;5057928;28;20175;-85
2022/11/11 09:15:36;;;;;;;13.07;9.20;;;7.90;99.90;;;;;;5058027;28;20560;-87
2022/11/11 09:18:02;;;;;;;11.60;9.20;;;8.00;99.90;;;;;;5059205;28;20210;-83
2022/11/11 09:20:28;;;;;;;15.37;9.90;;;8.00;99.90;;;;;;5055698;28;20180;-80
2022/11/11 09:22:55;;;;;;;13.00;10.47;;;8.10;99.90;;;;;;5055608;28;20499;-81
2022/11/11 09:25:22;;;;;;;10.83;9.20;;;8.10;99.90;;;;;;5055437;28;20265;-84
2022/11/11 09:27:58;;;;;;;14.93;9.67;;;8.20;99.90;;;;;;5038253;28;20190;-82
2022/11/11 09:30:26;;;;;;;12.13;10.00;;;8.30;99.90;;;;;;5059519;28;20183;-81
2022/11/11 09:32:52;;;;;;;11.23;10.07;;;8.30;99.90;;;;;;5038690;28;20629;-83
2022/11/11 09:35:18;;;;;;;12.33;10.27;;;8.40;99.90;;;;;;5054909;28;20265;-80
2022/11/11 09:37:58;;;;;;;15.27;10.47;;;8.40;99.90;;;;;;5036904;28;20617;-79
2022/11/11 09:40:27;;;;;;;13.00;10.77;;;8.50;99.90;;;;;;5055324;28;20164;-81
2022/11/11 09:43:22;;;;;;;11.17;10.07;;;8.60;99.90;;;;;;5054940;28;20243;-87
2022/11/11 09:45:57;;;;;;;18.43;10.00;;;8.70;99.90;;;;;;5041361;28;20183;-84
2022/11/11 09:48:54;;;;;;;12.47;9.67;;;8.70;99.90;;;;;;5036782;28;20233;-80
2022/11/11 09:51:28;;;;;;;11.33;9.87;;;8.80;99.90;;;;;;5054644;28;20260;-80
2022/11/11 09:54:04;;;;;;;15.90;10.17;;;8.80;99.90;;;;;;5054842;28;20207;-81
2022/11/11 09:56:32;;;;;;;19.27;11.17;;;8.80;99.90;;;;;;5054757;28;20197;-79
2022/11/11 09:59:13;;;;;;;17.70;10.90;;;8.90;99.90;;;;;;5055838;28;20176;-81
2022/11/11 10:01:45;;;;;;;14.10;10.77;;;8.90;99.90;;;;;;5038521;28;20186;-82
2022/11/11 10:04:20;;;;;;;17.23;11.03;;;9.10;99.90;;;;;;5056068;28;20248;-83
2022/11/11 10:06:49;;;;;;;20.40;11.40;;;9.20;99.90;;;;;;5054954;28;20177;-83
2022/11/11 10:09:19;;;;;;;17.50;11.57;;;9.30;99.90;;;;;;5036555;28;20654;-84
2022/11/11 10:11:48;;;;;;;17.80;11.50;;;9.50;99.90;;;;;;5054494;28;20209;-84
2022/11/11 10:14:15;;;;;;;17.20;12.47;;;9.50;99.90;;;;;;5054455;28;20182;-83
2022/11/11 10:17:12;;;;;;;16.13;11.10;;;9.60;99.90;;;;;;5043008;28;20235;-85
2022/11/11 10:19:52;;;;;;;16.90;11.00;;;9.80;99.90;;;;;;5034031;28;20246;-81
2022/11/11 10:22:30;;;;;;;16.63;10.50;;;9.90;99.90;;;;;;5034473;28;20258;-84
2022/11/11 10:25:15;;;;;;;14.20;10.47;;;9.90;99.90;;;;;;5037625;28;20172;-83
2022/11/11 10:27:46;;;;;;;15.90;10.17;;;10.10;99.90;;;;;;5042879;28;20175;-84
2022/11/11 10:30:18;;;;;;;13.83;9.53;;;10.10;99.90;;;;;;5034877;28;20168;-82
2022/11/11 10:32:47;;;;;;;11.83;9.83;;;10.10;99.90;;;;;;5034325;28;20176;-84
2022/11/11 10:35:20;;;;;;;15.63;9.60;;;10.30;99.90;;;;;;5034135;28;20175;-85
2022/11/11 10:38:11;;;;;;;10.13;8.33;;;10.20;99.90;;;;;;5034404;28;20687;-87
2022/11/11 10:40:52;;;;;;;14.17;9.73;;;10.30;99.90;;;;;;5019295;28;20552;-82
2022/11/11 10:43:26;;;;;;;13.53;9.20;;;10.30;99.90;;;;;;5034626;28;20203;-85
2022/11/11 10:46:10;;;;;;;14.27;8.90;;;10.30;99.90;;;;;;5033018;28;20175;-82
2022/11/11 10:49:11;;;;;;;11.70;9.10;;;10.40;99.90;;;;;;5034800;28;20196;-84
2022/11/11 10:51:59;;;;;;;10.70;8.80;;;10.50;99.90;;;;;;5034733;28;20238;-85
2022/11/11 10:54:35;;;;;;;11.47;9.03;;;10.50;99.90;;;;;;5034357;28;20199;-85
2022/11/11 10:57:28;;;;;;;12.33;9.40;;;10.70;99.90;;;;;;5034022;28;20239;-86
2022/11/11 11:00:05;;;;;;;9.73;8.20;;;10.70;99.90;;;;;;5034004;28;20204;-84
2022/11/11 11:02:58;;;;;;;10.20;8.47;;;10.90;99.90;;;;;;5045215;28;20179;-83
2022/11/11 11:05:32;;;;;;;13.47;8.33;;;11.00;99.90;;;;;;5044182;28;20263;-87
2022/11/11 11:08:26;;;;;;;;;;;;;;;;;;;;;
2022/11/11 11:11:10;;;;;;;8.60;7.73;;;11.10;99.90;;;;;;5034861;28;20256;-80
2022/11/11 11:13:54;;;;;;;11.43;8.20;;;11.00;99.90;;;;;;5033840;28;20188;-83
2022/11/11 11:16:33;;;;;;;9.90;8.80;;;11.10;99.90;;;;;;5035210;28;20251;-85
2022/11/11 11:19:19;;;;;;;13.10;8.17;;;11.10;99.90;;;;;;5034568;28;20322;-85
2022/11/11 11:22:03;;;;;;;11.03;7.70;;;11.10;99.90;;;;;;5033785;28;20191;-85
2022/11/11 11:24:36;;;;;;;10.07;8.03;;;11.10;99.90;;;;;;5032569;28;20183;-85
2022/11/11 11:27:07;;;;;;;10.33;8.33;;;11.10;99.90;;;;;;5032109;28;20189;-84
2022/11/11 11:29:41;;;;;;;11.53;8.17;;;11.10;99.90;;;;;;5033710;28;20700;-83
2022/11/11 11:32:22;;;;;;;9.33;7.40;;;11.10;99.90;;;;;;5034267;28;20263;-79
2022/11/11 11:34:53;;;;;;;9.17;7.20;;;11.10;99.90;;;;;;5036800;28;20646;-81
2022/11/11 11:37:21;;;;;;;9.33;7.80;;;11.00;99.90;;;;;;5035616;28;20223;-84
2022/11/11 11:39:47;;;;;;;9.37;7.70;;;11.10;99.90;;;;;;5037203;28;20180;-82
2022/11/11 11:42:37;;;;;;;9.50;7.47;;;11.00;99.90;;;;;;5037159;28;20516;-81
2022/11/11 11:45:15;;;;;;;9.47;8.00;;;10.90;99.90;;;;;;5044283;28;20192;-84
2022/11/11 11:48:24;;;;;;;13.07;7.73;;;11.00;99.90;;;;;;5036614;28;20177;-81
2022/11/11 11:51:00;;;;;;;10.33;7.47;;;10.90;99.90;;;;;;5037922;28;20188;-85
2022/11/11 11:54:08;;;;;;;10.43;8.30;;;10.80;99.90;;;;;;5038352;28;20176;-83
2022/11/11 11:57:06;;;;;;;8.73;7.60;;;10.70;99.90;;;;;;5035355;28;20248;-83
2022/11/11 11:59:51;;;;;;;10.73;8.43;;;10.60;99.90;;;;;;5023876;28;20682;-85
2022/11/11 12:02:54;;;;;;;11.13;8.00;;;10.60;99.90;;;;;;5038337;28;20602;-83
2022/11/11 12:05:43;;;;;;;9.73;7.67;;;10.50;99.90;;;;;;5036614;28;20183;-85
2022/11/11 12:08:30;;;;;;;12.07;8.20;;;10.60;99.90;;;;;;5037011;28;20215;-84
2022/11/11 12:11:10;;;;;;;10.63;8.20;;;10.80;99.90;;;;;;5036995;28;20172;-84
2022/11/11 12:14:13;;;;;;;12.43;8.93;;;10.70;99.90;;;;;;5036707;28;20639;-85
2022/11/11 12:17:12;;;;;;;13.10;9.53;;;10.80;99.90;;;;;;5036633;28;20227;-84
2022/11/11 12:19:57;;;;;;;14.90;9.73;;;10.80;99.90;;;;;;5039011;28;20165;-86
2022/11/11 12:22:46;;;;;;;9.90;8.83;;;10.80;99.90;;;;;;5036815;28;20170;-83
2022/11/11 12:25:34;;;;;;;13.40;9.03;;;10.80;99.90;;;;;;5036589;28;20190;-79
2022/11/11 12:28:02;;;;;;;10.80;8.90;;;10.70;99.90;;;;;;5040085;28;20208;-83
2022/11/11 12:30:32;;;;;;;15.33;10.50;;;10.70;99.90;;;;;;5035221;28;20198;-81
2022/11/11 12:33:14;;;;;;;15.17;10.60;;;10.80;99.90;;;;;;5036154;28;20183;-81
2022/11/11 12:36:08;;;;;;;16.13;10.53;;;10.80;99.90;;;;;;5034775;28;20176;-82
2022/11/11 12:38:51;;;;;;;14.57;10.20;;;10.80;99.90;;;;;;5036861;28;20200;-85
2022/11/11 12:41:29;;;;;;;12.50;10.17;;;10.90;99.90;;;;;;5037078;28;20232;-84
2022/11/11 12:44:11;;;;;;;11.57;8.93;;;11.10;99.90;;;;;;5035853;28;20230;-83
2022/11/11 12:47:25;;;;;;;8.40;7.60;;;11.10;99.90;;;;;;5036887;28;20168;-83
2022/11/11 12:50:14;;;;;;;9.93;7.77;;;11.10;99.90;;;;;;5046369;28;20203;-80
2022/11/11 12:52:57;;;;;;;8.67;7.27;;;11.00;99.90;;;;;;5040821;28;20193;-84
2022/11/11 12:55:39;;;;;;;9.07;7.43;;;11.00;99.90;;;;;;5035835;28;20746;-80
2022/11/11 12:58:27;;;;;;;11.40;9.10;;;10.90;99.90;;;;;;5034502;28;20701;-83
2022/11/11 13:01:32;;;;;;;11.70;8.37;;;11.00;99.90;;;;;;5036426;28;20348;-85
2022/11/11 13:04:44;;;;;;;12.33;8.37;;;10.90;99.90;;;;;;5037627;28;20635;-83
2022/11/11 13:07:15;;;;;;;13.57;9.13;;;11.00;99.90;;;;;;5034612;28;20744;-81
2022/11/11 13:10:13;;;;;;;13.13;9.10;;;11.00;99.90;;;;;;5035291;28;20648;-83
2022/11/11 13:13:09;;;;;;;12.17;8.13;;;11.00;99.90;;;;;;5033778;28;20549;-79
2022/11/11 13:15:35;;;;;;;19.50;12.10;;;11.10;99.90;;;;;;5034317;28;20228;-83
2022/11/11 13:18:12;;;;;;;13.80;10.10;;;11.10;99.90;;;;;;5036014;28;20218;-84
2022/11/11 13:20:56;;;;;;;16.67;9.60;;;11.20;99.90;;;;;;5036993;28;20169;-83
2022/11/11 13:23:22;;;;;;;12.77;8.43;;;11.30;99.90;;;;;;5043563;28;20172;-82
2022/11/11 13:25:53;;;;;;;11.77;9.47;;;11.30;99.90;;;;;;5042800;28;20283;-85
2022/11/11 13:28:42;;;;;;;12.97;8.87;;;11.40;99.90;;;;;;5035378;28;20167;-85
2022/11/11 13:31:29;;;;;;;11.67;8.90;;;11.50;99.90;;;;;;5033853;28;20203;-84
2022/11/11 13:34:01;;;;;;;12.00;9.27;;;11.50;99.90;;;;;;5036539;28;20176;-83
2022/11/11 13:36:29;;;;;;;11.83;8.47;;;11.50;99.90;;;;;;5038686;28;20234;-83
2022/11/11 13:39:01;;;;;;;18.27;9.17;;;11.50;99.90;;;;;;5038189;28;20181;-83
2022/11/11 13:41:34;;;;;;;12.50;9.13;;;11.40;99.90;;;;;;5039842;28;20634;-83
2022/11/11 13:44:03;;;;;;;12.10;8.27;;;11.40;99.90;;;;;;5036968;28;20169;-83
2022/11/11 13:46:37;;;;;;;13.13;8.40;;;11.40;99.90;;;;;;5034926;28;20261;-79
2022/11/11 13:49:07;;;;;;;11.30;9.67;;;11.40;99.90;;;;;;5034015;28;20205;-80
2022/11/11 13:51:37;;;;;;;11.57;9.63;;;11.40;99.90;;;;;;5035853;28;20544;-81
2022/11/11 13:54:20;;;;;;;10.03;8.90;;;11.40;99.90;;;;;;5035717;28;20180;-82
2022/11/11 13:56:49;;;;;;;12.60;9.00;;;11.30;99.90;;;;;;5034790;28;20562;-80
2022/11/11 13:59:52;;;;;;;11.77;9.10;;;11.40;99.90;;;;;;5034491;28;20213;-84
2022/11/11 14:02:18;;;;;;;14.83;8.80;;;11.30;99.90;;;;;;5026366;28;20234;-85
2022/11/11 14:05:05;;;;;;;10.87;8.17;;;11.30;99.90;;;;;;5038247;28;20606;-85
2022/11/11 14:07:53;;;;;;;12.57;8.40;;;11.20;99.90;;;;;;5037161;28;20265;-86
2022/11/11 14:10:19;;;;;;;14.20;8.37;;;11.20;99.90;;;;;;5034914;28;20263;-83
2022/11/11 14:12:50;;;;;;;10.27;8.27;;;11.10;99.90;;;;;;5034441;28;20541;-84
2022/11/11 14:15:42;;;;;;;9.67;8.07;;;11.10;99.90;;;;;;5044522;28;20231;-86
2022/11/11 14:18:16;;;;;;;10.93;9.17;;;11.10;99.90;;;;;;5055170;28;20217;-83
2022/11/11 14:20:48;;;;;;;10.80;8.83;;;11.00;99.90;;;;;;5054406;28;20194;-80
2022/11/11 14:23:19;;;;;;;12.63;9.00;;;11.00;99.90;;;;;;5054773;28;20176;-85